Time;durP1;ratioP1;P1;durP2;ratioP2;P2;SDS_P1;SDS_P2;PMS_P1;PMS_P2;Temp;Humidity;BMP_temperature;BMP_pressure;BME280_temperature;BME280_humidity;BME280_pressure;Samples;Min_cycle;Max_cycle;Signal;HPM_P1;HPM_P2
2021/09/28 00:00:28;;;;;;;7.07;1.40;;;14.20;99.90;;;;;;5028814;28;20224;-82
2021/09/28 00:02:55;;;;;;;3.60;1.20;;;14.10;99.90;;;;;;5028925;28;20214;-83
2021/09/28 00:05:23;;;;;;;1.57;1.07;;;14.10;99.90;;;;;;5027800;28;20211;-89
2021/09/28 00:07:50;;;;;;;3.60;1.10;;;14.00;99.90;;;;;;5029718;28;20253;-86
2021/09/28 00:10:17;;;;;;;5.53;1.47;;;14.00;99.90;;;;;;5028861;28;20506;-83
2021/09/28 00:12:44;;;;;;;2.57;1.30;;;14.00;99.90;;;;;;5028638;28;20217;-92
2021/09/28 00:15:13;;;;;;;5.37;1.57;;;14.00;99.90;;;;;;5012734;28;20222;-82
2021/09/28 00:17:40;;;;;;;2.70;1.37;;;14.00;99.90;;;;;;5010175;28;20558;-82
2021/09/28 00:20:08;;;;;;;3.63;1.57;;;14.00;99.90;;;;;;5009602;28;20790;-81
2021/09/28 00:22:37;;;;;;;3.77;1.90;;;14.00;99.90;;;;;;5018823;28;20217;-82
2021/09/28 00:25:05;;;;;;;5.03;1.43;;;13.90;99.90;;;;;;5030183;28;20203;-90
2021/09/28 00:27:32;;;;;;;3.97;1.80;;;13.90;99.90;;;;;;5028379;28;20230;-82
2021/09/28 00:29:59;;;;;;;5.00;1.47;;;13.90;99.90;;;;;;5028556;28;20501;-80
2021/09/28 00:32:26;;;;;;;5.70;1.43;;;13.90;99.90;;;;;;5029346;28;20611;-82
2021/09/28 00:34:53;;;;;;;5.07;1.60;;;13.90;99.90;;;;;;5028535;28;20912;-82
2021/09/28 00:37:20;;;;;;;6.20;1.53;;;13.90;99.90;;;;;;5036741;28;20217;-82
2021/09/28 00:39:49;;;;;;;4.93;1.40;;;13.90;99.90;;;;;;5048938;28;20213;-88
2021/09/28 00:42:16;;;;;;;4.23;1.40;;;13.90;99.90;;;;;;5030931;28;20214;-80
2021/09/28 00:44:45;;;;;;;4.30;1.40;;;13.90;99.90;;;;;;5028363;28;20202;-83
2021/09/28 00:47:13;;;;;;;7.27;2.10;;;13.90;99.90;;;;;;5027321;28;20252;-83
2021/09/28 00:49:41;;;;;;;6.77;1.80;;;13.90;99.90;;;;;;5030099;28;20503;-81
2021/09/28 00:52:08;;;;;;;5.40;1.83;;;13.80;99.90;;;;;;5029059;28;20199;-88
2021/09/28 00:54:37;;;;;;;4.93;1.77;;;13.80;99.90;;;;;;5011590;28;20234;-83
2021/09/28 00:57:06;;;;;;;6.00;1.73;;;13.80;99.90;;;;;;5012465;28;20223;-85
2021/09/28 00:59:39;;;;;;;5.40;1.60;;;13.80;99.90;;;;;;5013298;28;20215;-88
2021/09/28 01:02:07;;;;;;;7.80;1.77;;;13.80;99.90;;;;;;5011114;28;20200;-89
2021/09/28 01:04:34;;;;;;;4.70;1.80;;;13.80;99.90;;;;;;5011681;28;20294;-93
2021/09/28 01:07:01;;;;;;;7.20;1.70;;;13.70;99.90;;;;;;5007268;28;20208;-88
2021/09/28 01:09:28;;;;;;;4.67;1.60;;;13.70;99.90;;;;;;4989711;28;20231;-83
2021/09/28 01:11:55;;;;;;;6.43;1.80;;;13.70;99.90;;;;;;4989133;28;20207;-84
2021/09/28 01:14:23;;;;;;;4.10;1.50;;;13.70;99.90;;;;;;4989159;28;20499;-83
2021/09/28 01:16:50;;;;;;;5.70;1.90;;;13.70;99.90;;;;;;4998215;28;20211;-80
2021/09/28 01:19:17;;;;;;;4.83;1.60;;;13.70;99.90;;;;;;5007203;28;20646;-81
2021/09/28 01:21:45;;;;;;;7.53;1.60;;;13.80;99.90;;;;;;5006224;28;20200;-82
2021/09/28 01:24:12;;;;;;;7.57;2.03;;;13.80;99.90;;;;;;5007686;28;20207;-84
2021/09/28 01:26:39;;;;;;;4.30;1.50;;;13.70;99.90;;;;;;5006999;28;20196;-80
2021/09/28 01:29:07;;;;;;;5.97;1.63;;;13.70;99.90;;;;;;5007496;28;20227;-85
2021/09/28 01:31:34;;;;;;;4.40;1.40;;;13.70;99.90;;;;;;5005958;28;20218;-83
2021/09/28 01:34:01;;;;;;;6.43;1.60;;;13.70;99.90;;;;;;5007434;28;20205;-82
2021/09/28 01:36:28;;;;;;;3.30;1.33;;;13.70;99.90;;;;;;5008006;28;20214;-81
2021/09/28 01:38:56;;;;;;;5.70;1.47;;;13.70;99.90;;;;;;5014372;28;20290;-84
2021/09/28 01:41:23;;;;;;;8.43;1.80;;;13.70;99.90;;;;;;5007278;28;20211;-81
2021/09/28 01:43:50;;;;;;;4.77;1.80;;;13.70;99.90;;;;;;5007090;28;20211;-82
2021/09/28 01:46:17;;;;;;;5.80;1.70;;;13.70;99.90;;;;;;5007475;28;20654;-81
2021/09/28 01:48:49;;;;;;;4.43;1.70;;;13.70;99.90;;;;;;5007601;28;20231;-83
2021/09/28 01:51:16;;;;;;;5.73;2.03;;;13.70;99.90;;;;;;4998730;28;20215;-87
2021/09/28 01:53:43;;;;;;;7.27;2.00;;;13.70;99.90;;;;;;5000106;28;20252;-87
2021/09/28 01:56:19;;;;;;;11.07;1.90;;;13.70;99.90;;;;;;5030074;28;20198;-85
2021/09/28 01:58:46;;;;;;;9.27;2.40;;;13.70;99.90;;;;;;5026991;28;20203;-92
2021/09/28 02:01:13;;;;;;;5.53;1.80;;;13.70;99.90;;;;;;5028071;28;20194;-92
2021/09/28 02:03:40;;;;;;;9.20;2.10;;;13.60;99.90;;;;;;5026935;28;20590;-81
2021/09/28 02:06:07;;;;;;;8.70;1.80;;;13.70;99.90;;;;;;5024961;28;20226;-89
2021/09/28 02:08:34;;;;;;;4.70;1.60;;;13.70;99.90;;;;;;5025609;28;20316;-83
2021/09/28 02:11:01;;;;;;;6.13;1.80;;;13.60;99.90;;;;;;5025989;28;20225;-82
2021/09/28 02:13:29;;;;;;;5.73;1.70;;;13.60;99.90;;;;;;5028884;28;20517;-81
2021/09/28 02:15:56;;;;;;;13.93;2.23;;;13.60;99.90;;;;;;5029173;28;20206;-81
2021/09/28 02:18:23;;;;;;;4.70;1.70;;;13.60;99.90;;;;;;5028840;28;20195;-82
2021/09/28 02:20:50;;;;;;;6.33;2.03;;;13.50;99.90;;;;;;5030850;28;20220;-83
2021/09/28 02:23:17;;;;;;;9.10;2.00;;;13.50;99.90;;;;;;5033120;28;20207;-86
2021/09/28 02:25:44;;;;;;;9.40;2.27;;;13.50;99.90;;;;;;5029317;28;20198;-88
2021/09/28 02:28:11;;;;;;;5.87;2.00;;;13.50;99.90;;;;;;5027932;28;20219;-89
2021/09/28 02:30:40;;;;;;;7.80;2.30;;;13.50;99.90;;;;;;5028143;28;20194;-88
2021/09/28 02:33:07;;;;;;;8.57;1.97;;;13.40;99.90;;;;;;5027325;28;20269;-83
2021/09/28 02:35:34;;;;;;;10.37;2.53;;;13.40;99.90;;;;;;5025476;28;20211;-86
2021/09/28 02:38:00;;;;;;;9.40;2.27;;;13.40;99.90;;;;;;5027698;28;20209;-82
2021/09/28 02:40:28;;;;;;;7.47;2.50;;;13.30;99.90;;;;;;5026375;28;20195;-83
2021/09/28 02:42:55;;;;;;;11.80;2.30;;;13.30;99.90;;;;;;5024991;28;20207;-87
2021/09/28 02:45:22;;;;;;;13.63;3.43;;;13.30;99.90;;;;;;5027620;28;20536;-90
2021/09/28 02:47:51;;;;;;;11.57;2.40;;;13.30;99.90;;;;;;5026681;28;20250;-87
2021/09/28 02:50:17;;;;;;;7.50;2.30;;;13.20;99.90;;;;;;5022122;28;20203;-85
2021/09/28 02:52:44;;;;;;;6.43;2.60;;;13.20;99.90;;;;;;5008938;28;20217;-89
2021/09/28 02:55:12;;;;;;;12.17;2.27;;;13.20;99.90;;;;;;5019721;28;20507;-93
2021/09/28 02:57:39;;;;;;;11.77;2.77;;;13.10;99.90;;;;;;5026627;28;20231;-88
2021/09/28 03:00:07;;;;;;;7.03;2.60;;;13.10;99.90;;;;;;5029376;28;20207;-90
2021/09/28 03:02:34;;;;;;;7.93;2.10;;;13.10;99.90;;;;;;5032195;28;20213;-85
2021/09/28 03:05:02;;;;;;;7.43;2.00;;;13.00;99.90;;;;;;5031178;28;20206;-92
2021/09/28 03:07:29;;;;;;;9.80;2.73;;;13.00;99.90;;;;;;5030695;28;20210;-89
2021/09/28 03:09:56;;;;;;;13.63;3.87;;;13.00;99.90;;;;;;5031849;28;20696;-90
2021/09/28 03:12:23;;;;;;;7.93;2.60;;;13.00;99.90;;;;;;5032426;28;20210;-93
2021/09/28 03:14:49;;;;;;;7.07;2.57;;;13.00;99.90;;;;;;5035300;28;20205;-84
2021/09/28 03:17:16;;;;;;;10.43;2.80;;;12.90;99.90;;;;;;5034136;28;20210;-91
2021/09/28 03:19:43;;;;;;;7.57;2.23;;;12.90;99.90;;;;;;5033776;28;20195;-89
2021/09/28 03:22:11;;;;;;;12.13;2.50;;;13.00;99.90;;;;;;5016486;28;20233;-91
2021/09/28 03:24:38;;;;;;;6.60;2.73;;;13.00;99.90;;;;;;5014060;28;20619;-91
2021/09/28 03:27:06;;;;;;;13.43;2.73;;;13.00;99.90;;;;;;5014054;28;20201;-90
2021/09/28 03:29:33;;;;;;;8.20;2.60;;;12.90;99.90;;;;;;5017625;28;20226;-89
2021/09/28 03:32:00;;;;;;;10.87;2.80;;;12.90;99.90;;;;;;5034312;28;20207;-91
2021/09/28 03:34:27;;;;;;;7.20;2.80;;;12.90;99.90;;;;;;5034704;28;20587;-86
2021/09/28 03:36:54;;;;;;;11.73;2.83;;;12.90;99.90;;;;;;5038960;28;20202;-91
2021/09/28 03:39:22;;;;;;;11.73;2.90;;;12.80;99.90;;;;;;5036151;28;20241;-91
2021/09/28 03:41:49;;;;;;;18.30;3.63;;;12.80;99.90;;;;;;5036039;28;20196;-89
2021/09/28 03:44:16;;;;;;;8.10;2.93;;;12.80;99.90;;;;;;5035119;28;20956;-91
2021/09/28 03:46:43;;;;;;;13.13;2.40;;;12.80;99.90;;;;;;5036513;28;20210;-91
2021/09/28 03:49:10;;;;;;;8.63;2.40;;;12.80;99.90;;;;;;5019674;28;20226;-91
2021/09/28 03:51:37;;;;;;;11.67;2.40;;;12.80;99.90;;;;;;5018653;28;20279;-81
2021/09/28 03:54:03;;;;;;;13.03;2.60;;;12.80;99.90;;;;;;5032302;28;20248;-92
2021/09/28 03:56:32;;;;;;;17.03;3.10;;;12.80;99.90;;;;;;5034695;28;20613;-91
2021/09/28 03:58:58;;;;;;;5.23;2.47;;;12.80;99.90;;;;;;5034658;28;20198;-92
2021/09/28 04:01:25;;;;;;;11.17;3.30;;;12.80;99.90;;;;;;5023711;28;20215;-91
2021/09/28 04:03:52;;;;;;;10.10;2.90;;;12.80;99.90;;;;;;5015442;28;20195;-91
2021/09/28 04:06:19;;;;;;;14.33;3.17;;;12.70;99.90;;;;;;5014662;28;20201;-92
2021/09/28 04:08:48;;;;;;;8.93;2.60;;;12.70;99.90;;;;;;5011871;28;20230;-89
2021/09/28 04:11:15;;;;;;;12.80;2.87;;;12.70;99.90;;;;;;5026039;28;20252;-91
2021/09/28 04:13:47;;;;;;;14.30;2.57;;;12.70;99.90;;;;;;5034514;28;20265;-86
2021/09/28 04:16:16;;;;;;;8.63;2.60;;;12.60;99.90;;;;;;5033503;28;20199;-89
2021/09/28 04:18:43;;;;;;;15.77;3.93;;;12.60;99.90;;;;;;5034403;28;20203;-89
2021/09/28 04:21:10;;;;;;;13.47;3.60;;;12.60;99.90;;;;;;5034738;28;20233;-90
2021/09/28 04:23:36;;;;;;;14.23;3.30;;;12.60;99.90;;;;;;5035067;28;20225;-87
2021/09/28 04:26:03;;;;;;;9.53;2.77;;;12.60;99.90;;;;;;5034992;28;20208;-85
2021/09/28 04:28:30;;;;;;;10.20;3.27;;;12.60;99.90;;;;;;5034717;28;20207;-88
2021/09/28 04:30:59;;;;;;;19.60;4.27;;;12.50;99.90;;;;;;5036093;28;20206;-89
2021/09/28 04:33:25;;;;;;;15.27;3.37;;;12.60;99.90;;;;;;5036311;28;20213;-90
2021/09/28 04:35:52;;;;;;;16.03;3.50;;;12.50;99.90;;;;;;5036528;28;20233;-92
2021/09/28 04:38:19;;;;;;;9.50;3.03;;;12.50;99.90;;;;;;5053571;28;20263;-89
2021/09/28 04:40:46;;;;;;;13.20;3.43;;;12.50;99.90;;;;;;5057728;28;20578;-89
2021/09/28 04:43:13;;;;;;;14.60;4.00;;;12.50;99.90;;;;;;5031111;28;20197;-86
2021/09/28 04:45:40;;;;;;;12.97;3.80;;;12.40;99.90;;;;;;5032523;28;20286;-83
2021/09/28 04:48:08;;;;;;;10.27;3.60;;;12.40;99.90;;;;;;5031663;28;20197;-83
2021/09/28 04:50:35;;;;;;;14.50;4.43;;;12.40;99.90;;;;;;5045257;28;20297;-82
2021/09/28 04:53:02;;;;;;;18.10;4.80;;;12.40;99.90;;;;;;5047094;28;20631;-80
2021/09/28 04:55:29;;;;;;;18.53;4.50;;;12.40;99.90;;;;;;5042103;28;20217;-81
2021/09/28 04:57:55;;;;;;;15.27;4.13;;;12.40;99.90;;;;;;5031957;28;20237;-82
2021/09/28 05:00:22;;;;;;;18.63;4.73;;;12.40;99.90;;;;;;5029770;28;20219;-83
2021/09/28 05:02:49;;;;;;;11.63;4.03;;;12.30;99.90;;;;;;5030341;28;20207;-86
2021/09/28 05:05:18;;;;;;;16.73;4.53;;;12.30;99.90;;;;;;5029632;28;20214;-82
2021/09/28 05:07:44;;;;;;;16.97;4.73;;;12.30;99.90;;;;;;5009805;28;20683;-82
2021/09/28 05:10:12;;;;;;;16.70;4.43;;;12.30;99.90;;;;;;5009778;28;20246;-84
2021/09/28 05:12:38;;;;;;;14.23;4.00;;;12.30;99.90;;;;;;5007853;28;20291;-88
2021/09/28 05:15:06;;;;;;;12.60;4.10;;;12.30;99.90;;;;;;5011473;28;20208;-84
2021/09/28 05:17:35;;;;;;;10.37;3.83;;;12.30;99.90;;;;;;5027365;28;20203;-87
2021/09/28 05:20:02;;;;;;;14.00;4.13;;;12.30;99.90;;;;;;5030826;28;20195;-83
2021/09/28 05:22:30;;;;;;;14.33;4.97;;;12.30;99.90;;;;;;5031749;28;20570;-89
2021/09/28 05:24:57;;;;;;;13.40;4.73;;;12.30;99.90;;;;;;5031114;28;20207;-87
2021/09/28 05:27:24;;;;;;;11.77;4.73;;;12.30;99.90;;;;;;5030716;28;20202;-84
2021/09/28 05:29:50;;;;;;;12.27;3.70;;;12.30;99.90;;;;;;5031534;28;20237;-88
2021/09/28 05:32:17;;;;;;;20.13;5.07;;;12.30;99.90;;;;;;5031274;28;20206;-88
2021/09/28 05:34:44;;;;;;;13.07;4.23;;;12.20;99.90;;;;;;5031516;28;20290;-84
2021/09/28 05:37:11;;;;;;;12.70;4.23;;;12.20;99.90;;;;;;5030910;28;20368;-90
2021/09/28 05:39:39;;;;;;;17.40;4.63;;;12.20;99.90;;;;;;5031248;28;20293;-85
2021/09/28 05:42:07;;;;;;;11.27;4.20;;;12.20;99.90;;;;;;5030880;28;20209;-90
2021/09/28 05:44:34;;;;;;;16.40;4.20;;;12.20;99.90;;;;;;5029733;28;20198;-89
2021/09/28 05:47:02;;;;;;;9.97;3.90;;;12.20;99.90;;;;;;5026210;28;20221;-88
2021/09/28 05:49:29;;;;;;;11.23;4.03;;;12.20;99.90;;;;;;5027939;28;20284;-89
2021/09/28 05:51:58;;;;;;;14.70;4.50;;;12.20;99.90;;;;;;5030792;28;20888;-90
2021/09/28 05:54:26;;;;;;;16.03;4.53;;;12.20;99.90;;;;;;5029037;28;20532;-88
2021/09/28 05:56:54;;;;;;;13.43;3.93;;;12.20;99.90;;;;;;5029492;28;20921;-88
2021/09/28 05:59:22;;;;;;;14.77;4.93;;;12.20;99.90;;;;;;5029871;28;20199;-90
2021/09/28 06:01:49;;;;;;;11.13;3.93;;;12.20;99.90;;;;;;5028115;28;20207;-85
2021/09/28 06:04:16;;;;;;;11.67;4.37;;;12.20;99.90;;;;;;5026302;28;20213;-87
2021/09/28 06:06:43;;;;;;;15.07;4.47;;;12.20;99.90;;;;;;5029500;28;20285;-83
2021/09/28 06:09:10;;;;;;;9.67;3.90;;;12.20;99.90;;;;;;5026669;28;20211;-87
2021/09/28 06:11:37;;;;;;;9.43;3.97;;;12.20;99.90;;;;;;5010488;28;20210;-87
2021/09/28 06:14:05;;;;;;;15.73;4.93;;;12.20;99.90;;;;;;5011451;28;20211;-88
2021/09/28 06:16:32;;;;;;;10.53;3.97;;;12.20;99.90;;;;;;5028310;28;20202;-89
2021/09/28 06:18:59;;;;;;;14.30;4.83;;;12.20;99.90;;;;;;5031165;28;20206;-89
2021/09/28 06:21:25;;;;;;;15.80;4.50;;;12.30;99.90;;;;;;5030360;28;20202;-88
2021/09/28 06:23:53;;;;;;;20.20;5.67;;;12.30;99.90;;;;;;5028978;28;20214;-88
2021/09/28 06:26:21;;;;;;;11.93;4.63;;;12.30;99.90;;;;;;5028601;28;20195;-87
2021/09/28 06:28:48;;;;;;;19.80;4.87;;;12.30;99.90;;;;;;5030738;28;20237;-87
2021/09/28 06:31:16;;;;;;;17.40;4.33;;;12.40;99.90;;;;;;5030403;28;20227;-88
2021/09/28 06:33:43;;;;;;;11.53;4.23;;;12.50;99.90;;;;;;5030378;28;20603;-82
2021/09/28 06:36:10;;;;;;;13.50;4.43;;;12.50;99.90;;;;;;5030611;28;20199;-88
2021/09/28 06:38:37;;;;;;;14.30;4.53;;;12.60;99.90;;;;;;5031986;28;20209;-88
2021/09/28 06:41:32;;;;;;;11.03;3.90;;;12.60;99.90;;;;;;5025095;28;20198;-88
2021/09/28 06:43:59;;;;;;;17.47;5.10;;;12.60;99.90;;;;;;5011556;28;20192;-89
2021/09/28 06:46:28;;;;;;;13.67;4.33;;;12.70;99.90;;;;;;5011302;28;20210;-87
2021/09/28 06:48:55;;;;;;;16.87;3.73;;;12.70;99.90;;;;;;5012311;28;20199;-85
2021/09/28 06:51:21;;;;;;;11.03;3.30;;;12.70;99.90;;;;;;5012296;28;20245;-86
2021/09/28 06:53:49;;;;;;;11.73;4.23;;;12.70;99.90;;;;;;5011136;28;20247;-87
2021/09/28 06:56:18;;;;;;;10.43;4.13;;;12.80;99.90;;;;;;5010640;28;20239;-87
2021/09/28 06:58:45;;;;;;;13.50;3.40;;;12.80;99.90;;;;;;5022959;28;20241;-89
2021/09/28 07:01:12;;;;;;;16.63;3.73;;;12.90;99.90;;;;;;5030738;28;20205;-86
2021/09/28 07:03:40;;;;;;;11.63;3.77;;;12.90;99.90;;;;;;5030651;28;20202;-87
2021/09/28 07:06:08;;;;;;;13.27;4.13;;;12.90;99.90;;;;;;5029242;28;20587;-87
2021/09/28 07:08:35;;;;;;;17.17;4.40;;;13.00;99.90;;;;;;5027993;28;20210;-87
2021/09/28 07:11:02;;;;;;;11.77;3.73;;;13.00;99.90;;;;;;5025390;28;20229;-88
2021/09/28 07:13:29;;;;;;;14.70;5.30;;;13.00;99.90;;;;;;5027100;28;20611;-83
2021/09/28 07:15:55;;;;;;;13.20;4.07;;;13.10;99.90;;;;;;5027329;28;20211;-82
2021/09/28 07:18:22;;;;;;;11.73;3.80;;;13.20;99.90;;;;;;5026494;28;20206;-80
2021/09/28 07:20:51;;;;;;;13.73;3.80;;;13.20;99.90;;;;;;5026896;28;20736;-83
2021/09/28 07:23:17;;;;;;;15.63;4.37;;;13.20;99.90;;;;;;5025570;28;20246;-89
2021/09/28 07:25:44;;;;;;;14.93;4.17;;;13.30;99.90;;;;;;5026120;28;20894;-86
2021/09/28 07:28:11;;;;;;;12.90;3.60;;;13.40;99.90;;;;;;5027446;28;20301;-84
2021/09/28 07:30:38;;;;;;;11.37;3.80;;;13.40;99.90;;;;;;5014030;28;20742;-82
2021/09/28 07:33:05;;;;;;;13.33;4.40;;;13.40;99.90;;;;;;5007492;28;20700;-86
2021/09/28 07:35:32;;;;;;;18.07;3.97;;;13.50;99.90;;;;;;5006031;28;20200;-87
2021/09/28 07:38:00;;;;;;;13.70;3.77;;;13.50;99.90;;;;;;5035425;28;20205;-83
2021/09/28 07:40:27;;;;;;;12.63;3.20;;;13.50;99.90;;;;;;5032228;28;20203;-81
2021/09/28 07:42:54;;;;;;;15.27;4.00;;;13.60;99.90;;;;;;5029096;28;20609;-84
2021/09/28 07:45:20;;;;;;;12.27;3.57;;;13.60;99.90;;;;;;5028696;28;20198;-87
2021/09/28 07:47:47;;;;;;;17.60;3.93;;;13.70;99.90;;;;;;5020463;28;20218;-87
2021/09/28 07:50:14;;;;;;;17.50;3.93;;;13.70;99.90;;;;;;5010399;28;20234;-87
2021/09/28 07:52:41;;;;;;;11.13;3.33;;;13.80;99.90;;;;;;5030101;28;20222;-83
2021/09/28 07:55:10;;;;;;;9.70;3.13;;;13.90;99.90;;;;;;5032812;28;20573;-86
2021/09/28 07:57:38;;;;;;;12.60;4.00;;;13.90;99.90;;;;;;5017366;28;20223;-86
2021/09/28 08:00:06;;;;;;;9.77;3.33;;;14.00;99.90;;;;;;5013246;28;20210;-84
2021/09/28 08:02:35;;;;;;;11.43;3.43;;;14.10;99.90;;;;;;5029156;28;20203;-81
2021/09/28 08:05:02;;;;;;;9.37;3.30;;;14.20;99.90;;;;;;5031894;28;20233;-83
2021/09/28 08:07:28;;;;;;;10.07;3.17;;;14.40;99.90;;;;;;5031149;28;20325;-84
2021/09/28 08:09:55;;;;;;;12.87;3.60;;;14.60;99.90;;;;;;5031912;28;20221;-81
2021/09/28 08:12:23;;;;;;;13.23;3.63;;;14.80;99.90;;;;;;5030587;28;20209;-85
2021/09/28 08:14:50;;;;;;;9.13;3.70;;;14.90;99.90;;;;;;5030639;28;20210;-88
2021/09/28 08:17:17;;;;;;;8.33;2.63;;;15.00;99.90;;;;;;5029862;28;20207;-83
2021/09/28 08:19:44;;;;;;;9.90;2.93;;;15.10;99.90;;;;;;5028457;28;20214;-90
2021/09/28 08:22:13;;;;;;;10.13;2.83;;;15.30;99.90;;;;;;5032727;28;20253;-87
2021/09/28 08:24:42;;;;;;;6.73;2.37;;;15.40;99.90;;;;;;5034527;28;20539;-88
2021/09/28 08:29:55;;;;;;;7.60;2.60;;;15.80;99.90;;;;;;5033192;28;20185;-83
2021/09/28 08:32:22;;;;;;;9.13;3.17;;;16.10;99.90;;;;;;5032560;28;20615;-86
2021/09/28 08:34:49;;;;;;;10.53;3.00;;;16.30;99.90;;;;;;5031965;28;20198;-90
2021/09/28 08:37:16;;;;;;;11.57;3.00;;;16.40;99.90;;;;;;5037116;28;20233;-88
2021/09/28 08:39:43;;;;;;;14.93;3.67;;;16.50;99.90;;;;;;5031650;28;20625;-90
2021/09/28 08:42:11;;;;;;;14.68;2.85;;;16.60;99.90;;;;;;5031331;28;20203;-92
2021/09/28 08:44:40;;;;;;;10.87;2.63;;;16.70;99.90;;;;;;5028543;28;20202;-88
2021/09/28 08:47:09;;;;;;;15.73;3.50;;;16.80;99.90;;;;;;5032371;28;20210;-90
2021/09/28 08:49:36;;;;;;;12.18;3.42;;;16.90;99.90;;;;;;5031261;28;20234;-88
2021/09/28 08:52:05;;;;;;;8.73;2.38;;;16.90;99.90;;;;;;5032156;28;20690;-85
2021/09/28 08:54:32;;;;;;;9.25;2.40;;;17.00;99.90;;;;;;5031511;28;20230;-89
2021/09/28 08:56:59;;;;;;;10.30;2.88;;;17.10;99.90;;;;;;5030872;28;20238;-82
2021/09/28 08:59:40;;;;;;;11.98;2.40;;;17.10;99.90;;;;;;5031713;28;20195;-86
2021/09/28 09:02:09;;;;;;;10.05;2.65;;;17.00;99.90;;;;;;5030466;28;20237;-86
2021/09/28 09:04:36;;;;;;;12.23;2.65;;;17.00;99.90;;;;;;5030704;28;20229;-82
2021/09/28 09:07:21;;;;;;;10.85;3.35;;;16.90;99.90;;;;;;5030812;28;20210;-87
2021/09/28 09:09:49;;;;;;;9.00;2.30;;;16.90;99.90;;;;;;5030481;28;20250;-82
2021/09/28 09:12:29;;;;;;;10.85;2.45;;;16.90;99.90;;;;;;5030725;28;20226;-89
2021/09/28 09:15:16;;;;;;;8.00;2.13;;;16.90;99.90;;;;;;5030956;28;20245;-83
2021/09/28 09:17:45;;;;;;;6.68;1.67;;;17.00;99.90;;;;;;5029765;28;20234;-85
2021/09/28 09:20:24;;;;;;;8.27;2.20;;;17.00;99.90;;;;;;5029478;28;20209;-88
2021/09/28 09:22:51;;;;;;;7.18;1.95;;;17.10;99.90;;;;;;5011643;28;20203;-87
2021/09/28 09:25:20;;;;;;;6.95;2.25;;;17.20;99.90;;;;;;5042876;28;20224;-83
2021/09/28 09:27:47;;;;;;;11.40;2.20;;;17.50;99.90;;;;;;5048976;28;20484;-86
2021/09/28 09:30:19;;;;;;;9.00;2.30;;;17.60;99.90;;;;;;5010417;28;20207;-86
2021/09/28 09:32:49;;;;;;;7.43;2.42;;;17.60;99.90;;;;;;5010432;28;20214;-89
2021/09/28 09:35:24;;;;;;;7.88;1.77;;;17.60;99.90;;;;;;5017080;28;20195;-88
2021/09/28 09:37:51;;;;;;;11.35;2.38;;;17.60;99.90;;;;;;5042413;28;20609;-89
2021/09/28 09:40:32;;;;;;;6.88;1.95;;;17.60;99.90;;;;;;5050462;28;20492;-88
2021/09/28 09:42:58;;;;;;;9.30;2.10;;;17.70;99.90;;;;;;5032752;28;20210;-86
2021/09/28 09:45:26;;;;;;;9.00;2.10;;;17.90;99.90;;;;;;5027251;28;20198;-88
2021/09/28 09:47:55;;;;;;;6.88;2.00;;;18.10;99.90;;;;;;5029566;28;20562;-89
2021/09/28 09:50:24;;;;;;;6.43;2.22;;;18.30;99.90;;;;;;5028522;28;20210;-82
2021/09/28 09:53:10;;;;;;;7.15;2.13;;;18.50;99.90;;;;;;5029810;28;20246;-83
2021/09/28 09:55:40;;;;;;;6.50;2.17;;;18.60;99.90;;;;;;5030404;28;20202;-84
2021/09/28 09:58:08;;;;;;;8.80;2.30;;;18.80;99.90;;;;;;5030708;28;20239;-87
2021/09/28 10:00:39;;;;;;;6.47;1.95;;;19.00;99.90;;;;;;5030706;28;20297;-89
2021/09/28 10:03:09;;;;;;;6.82;1.70;;;19.10;99.90;;;;;;5017699;28;20225;-85
2021/09/28 10:05:37;;;;;;;8.70;2.63;;;19.30;99.90;;;;;;5011061;28;20216;-85
2021/09/28 10:08:07;;;;;;;10.27;2.35;;;19.40;99.90;;;;;;5018586;28;20210;-85
2021/09/28 10:10:35;;;;;;;7.50;2.17;;;19.50;99.90;;;;;;5029474;28;20308;-82
2021/09/28 10:13:03;;;;;;;10.27;2.00;;;19.50;99.90;;;;;;5033203;28;20377;-82
2021/09/28 10:15:30;;;;;;;12.27;2.30;;;19.70;99.90;;;;;;5030929;28;20200;-84
2021/09/28 10:17:57;;;;;;;8.70;2.38;;;19.80;99.90;;;;;;5022844;28;20207;-84
2021/09/28 10:20:30;;;;;;;7.85;2.25;;;19.90;99.90;;;;;;5015492;28;20211;-80
2021/09/28 10:23:01;;;;;;;7.68;2.30;;;20.00;99.90;;;;;;5011273;28;20203;-86
2021/09/28 10:25:35;;;;;;;9.95;2.80;;;19.80;99.90;;;;;;5012313;28;20208;-86
2021/09/28 10:28:38;;;;;;;8.85;2.28;;;19.80;99.90;;;;;;5011610;28;20658;-84
2021/09/28 10:31:11;;;;;;;6.93;1.95;;;19.80;99.90;;;;;;5026422;28;20286;-83
2021/09/28 10:33:39;;;;;;;7.68;3.03;;;19.80;99.90;;;;;;5027030;28;20202;-83
2021/09/28 10:36:11;;;;;;;8.40;2.50;;;19.80;99.90;;;;;;5027540;28;20206;-81
2021/09/28 10:38:59;;;;;;;8.15;2.40;;;19.90;99.90;;;;;;5046199;28;20673;-86
2021/09/28 10:41:46;;;;;;;13.77;2.97;;;20.10;99.90;;;;;;5040897;28;20742;-85
2021/09/28 10:44:39;;;;;;;10.73;2.38;;;20.10;99.90;;;;;;5027957;28;20194;-82
2021/09/28 10:47:07;;;;;;;5.68;2.20;;;20.00;99.90;;;;;;5011866;28;20280;-84
2021/09/28 10:49:35;;;;;;;9.68;2.25;;;19.90;99.90;;;;;;5047131;28;20202;-82
2021/09/28 10:52:35;;;;;;;12.63;2.28;;;19.80;99.90;;;;;;5038508;28;20238;-82
2021/09/28 10:55:25;;;;;;;8.93;1.95;;;19.60;99.90;;;;;;5047482;28;20217;-85
2021/09/28 10:58:01;;;;;;;8.38;1.95;;;19.60;99.90;;;;;;5025679;28;20238;-87
2021/09/28 11:00:29;;;;;;;7.88;2.08;;;19.60;99.90;;;;;;5025464;28;20210;-85
2021/09/28 11:02:58;;;;;;;13.43;3.08;;;19.60;99.90;;;;;;5028066;28;20218;-87
2021/09/28 11:05:37;;;;;;;10.75;2.65;;;19.60;99.90;;;;;;5028252;28;20301;-84
2021/09/28 11:08:07;;;;;;;10.38;2.50;;;19.70;99.90;;;;;;5028525;28;20268;-84
2021/09/28 11:10:37;;;;;;;6.72;1.98;;;19.80;99.90;;;;;;5027835;28;20202;-88
2021/09/28 11:13:07;;;;;;;8.60;2.53;;;19.80;99.90;;;;;;5028745;28;20589;-85
2021/09/28 11:15:34;;;;;;;6.90;1.98;;;19.90;99.90;;;;;;5028400;28;20281;-83
2021/09/28 11:18:07;;;;;;;9.35;2.53;;;19.90;99.90;;;;;;5024959;28;20213;-85
2021/09/28 11:20:35;;;;;;;9.38;2.20;;;19.80;99.90;;;;;;5028864;28;20265;-87
2021/09/28 11:23:07;;;;;;;7.78;1.63;;;19.90;99.90;;;;;;5029687;28;20199;-86
2021/09/28 11:25:37;;;;;;;5.45;2.00;;;20.00;99.90;;;;;;5030698;28;20214;-88
2021/09/28 11:28:05;;;;;;;8.15;2.45;;;20.10;99.90;;;;;;5034474;28;20199;-88
2021/09/28 11:30:33;;;;;;;6.15;1.92;;;20.10;99.90;;;;;;5032630;28;20190;-86
2021/09/28 11:33:01;;;;;;;7.50;1.90;;;20.10;99.90;;;;;;5032627;28;20234;-86
2021/09/28 11:35:28;;;;;;;7.78;2.00;;;20.10;99.90;;;;;;5033319;28;20202;-91
2021/09/28 11:37:56;;;;;;;6.57;2.05;;;20.10;99.90;;;;;;5033253;28;20207;-86
2021/09/28 11:40:27;;;;;;;12.43;2.45;;;20.30;99.90;;;;;;5033392;28;20209;-86
2021/09/28 11:42:56;;;;;;;10.00;2.45;;;20.20;99.90;;;;;;5013478;28;20191;-86
2021/09/28 11:45:28;;;;;;;9.95;2.55;;;20.10;99.90;;;;;;5012249;28;20210;-90
2021/09/28 11:47:56;;;;;;;8.50;2.63;;;20.10;99.90;;;;;;5014405;28;20254;-90
2021/09/28 11:50:26;;;;;;;6.45;2.20;;;20.30;99.90;;;;;;5031754;28;20238;-86
2021/09/28 11:52:53;;;;;;;8.43;2.33;;;20.20;99.90;;;;;;5032506;28;20238;-87
2021/09/28 11:55:23;;;;;;;6.85;2.05;;;20.10;99.90;;;;;;5032879;28;20211;-89
2021/09/28 11:57:51;;;;;;;9.57;2.20;;;20.20;99.90;;;;;;5032321;28;20237;-87
2021/09/28 12:00:19;;;;;;;4.70;1.77;;;20.10;99.90;;;;;;5033219;28;20229;-88
2021/09/28 12:02:46;;;;;;;9.73;2.22;;;19.90;99.90;;;;;;5033386;28;20194;-89
2021/09/28 12:08:01;;;;;;;9.07;2.08;;;19.70;99.90;;;;;;5030974;28;20198;-86
2021/09/28 12:10:37;;;;;;;5.78;1.70;;;19.70;99.90;;;;;;5032667;28;20205;-86
2021/09/28 12:13:21;;;;;;;5.13;1.60;;;19.80;99.90;;;;;;5031639;28;20226;-88
2021/09/28 12:16:09;;;;;;;7.38;1.98;;;19.90;99.90;;;;;;5033685;28;20516;-89
2021/09/28 12:18:37;;;;;;;7.85;1.95;;;19.90;99.90;;;;;;5032642;28;20610;-86
2021/09/28 12:21:11;;;;;;;8.13;2.08;;;19.90;99.90;;;;;;5031876;28;20206;-88
2021/09/28 12:23:40;;;;;;;5.70;1.52;;;19.90;99.90;;;;;;5011651;28;20206;-86
2021/09/28 12:26:23;;;;;;;7.90;2.20;;;20.00;99.90;;;;;;5009587;28;20751;-88
2021/09/28 12:28:50;;;;;;;5.88;1.90;;;20.00;99.90;;;;;;5011250;28;20191;-84
2021/09/28 12:31:31;;;;;;;8.35;2.28;;;19.90;99.90;;;;;;5018954;28;20226;-85
2021/09/28 12:33:59;;;;;;;9.85;2.15;;;20.00;99.90;;;;;;5031086;28;20207;-86
2021/09/28 12:36:25;;;;;;;6.35;2.03;;;19.90;99.90;;;;;;5029169;28;20580;-84
2021/09/28 12:39:14;;;;;;;7.07;2.05;;;19.90;99.90;;;;;;5051332;28;20194;-83
2021/09/28 12:42:05;;;;;;;7.30;2.30;;;20.00;99.90;;;;;;5011612;28;20283;-85
2021/09/28 12:44:33;;;;;;;6.72;2.15;;;20.10;99.90;;;;;;5029282;28;20252;-90
2021/09/28 12:47:22;;;;;;;8.27;2.10;;;20.20;99.90;;;;;;5033970;28;20210;-82
2021/09/28 12:49:49;;;;;;;7.18;2.25;;;20.20;99.90;;;;;;5033119;28;20516;-88
2021/09/28 12:52:16;;;;;;;9.00;2.42;;;20.20;99.90;;;;;;5020334;28;20918;-87
2021/09/28 12:54:43;;;;;;;8.95;2.13;;;20.20;99.90;;;;;;5024646;28;20234;-85
2021/09/28 12:57:09;;;;;;;7.55;2.22;;;20.20;99.90;;;;;;5032247;28;20296;-87